EKSB 200150Z AUTO 29011KT 250V310 9999 OVC007/// 13/12 Q1017 EKSB 200120Z AUTO 27009KT 230V300 5000 OVC005/// 14/13 Q1017 EKSB 200050Z AUTO 26008KT 220V290 9000 OVC008/// 15/14 Q1016 EKSB 200020Z AUTO 26010KT 220V300 9999 OVC007/// 15/14 Q1016 EKSB 192350Z AUTO 26004KT 230V290 5000 OVC006/// 16/14 Q1016 EKSB 192320Z AUTO 27005KT 220V310 7000 BKN007/// BKN047/// 16/14 Q1016 EKSB 192250Z AUTO 24005KT 210V290 9000 FEW009/// SCT046/// BKN090/// 15/14 Q1016 EKSB 192220Z AUTO 25004KT 210V280 9000 FEW041/// SCT090/// 16/14 Q1016 EKSB 192150Z AUTO 27005KT 230V300 9999 SCT039/// BKN059/// 16/14 Q1016 EKSB 192120Z AUTO 27006KT 240V310 9999 FEW025/// BKN056/// BKN100/// 17/15 Q1016 EKSB 192050Z AUTO 26005KT 9999 BKN017/// BKN028/// 17/14 Q1016 EKSB 192020Z AUTO 22004KT 9999 OVC022/// 17/14 Q1016 EKSB 191950Z AUTO 19002KT 9999 BKN021/// 16/14 Q1015 EKSB 191920Z AUTO 18003KT 9999 NCD 16/14 Q1015 EKSB 191850Z AUTO 11001KT 9999 SCT098/// 17/14 Q1014 EKSB 191820Z AUTO 31001KT 9999 SCT100/// 17/14 Q1014 EKSB 191750Z AUTO 32004KT 9999 -RA BKN100/// 17/14 Q1014 EKSB 191720Z AUTO 31005KT 9999 SCT088/// BKN110/// BKN130/// BKN170/// 17/14 Q1015 EKSB 191650Z 32004KT 9999 FEW012 SCT030TCU BKN090 18/14 Q1015 EKSB 191620Z 30005KT 9999 FEW020 BKN090 19/14 Q1016 EKSB 191550Z 28003KT CAVOK 19/14 Q1016 EKSB 191520Z 31002KT CAVOK 20/15 Q1016 EKSB 191450Z 31003KT CAVOK 20/15 Q1016 EKSB 191420Z 34002KT CAVOK 20/14 Q1016 EKSB 191350Z 04002KT CAVOK 19/14 Q1016 EKSB 191320Z 06004KT 020V090 CAVOK 18/14 Q1016 EKSB 191250Z 03006KT CAVOK 18/14 Q1016 EKSB 191220Z 01006KT 330V040 CAVOK 20/14 Q1016 EKSB 191150Z 34007KT 310V010 9999 FEW025 BKN180 20/15 Q1017 EKSB 191123Z 32008KT 9999 FEW025 BKN180 20/15 Q1017 EKSB 191050Z 32007KT CAVOK 20/16 Q1017 EKSB 191020Z 34006KT 300V010 CAVOK 20/16 Q1017 EKSB 190950Z 35006KT 310V030 8000 NSC 20/16 Q1018 EKSB 190920Z 31007KT 8000 SCT035 BKN075 19/16 Q1018 EKSB 190902Z 01001KT 8000 FEW020CB BKN075 19/16 Q1018 EKSB 190850Z 09002KT 6000 FEW030CB BKN070 19/16 Q1017 EKSB 190820Z 04002KT 6000 FEW030CB BKN070 18/15 Q1017 EKSB 190750Z VRB01KT 4000 BR FEW025CB BKN070 18/15 Q1018 EKSB 190721Z 11004KT 3000 BR NSC 18/16 Q1017 EKSB 190650Z 12003KT 4000 BR NSC 16/15 Q1018 EKSB 190621Z 13003KT 4000 BR NSC 17/15 Q1018 EKSB 190550Z 12003KT 3000 BR NSC 16/15 Q1018 EKSB 190520Z 00000KT 3000 BR NSC 15/15 Q1018 EKSB 190450Z 11001KT 2500 BR NSC 14/13 Q1018 EKSB 190420Z 29001KT 3000 BCFG NSC 13/13 Q1018 EKSB 190350Z AUTO 00000KT 1000 R14///// R32/P1500D BCFG NCD 13/12 Q1018 EKSB 190320Z AUTO 12001KT 0250 R14///// R32/0400D FG NCD 13/12 Q1018 EKSB 190250Z AUTO VRB01KT 0300 R14///// R32/P1500U BCFG NCD 12/11 Q1018 EKSB 190220Z AUTO 25003KT 2000 BR NCD 13/12 Q1018 EKSB 190150Z AUTO VRB02KT 4000 BCFG NCD 14/13 Q1018 EKSB 190120Z AUTO 27001KT 3100 BR NCD 14/13 Q1018 EKSB 190050Z AUTO 28001KT 3500 BCFG NCD 14/14 Q1018 EKSB 190020Z AUTO 00000KT 5000 SCT072/// 14/13 Q1018 EKSB 182350Z AUTO 14001KT 9999 BCFG NCD 14/13 Q1018 EKSB 182320Z AUTO 16002KT 9999 NCD 14/13 Q1018 EKSB 182250Z AUTO 00000KT 8000 NCD 14/13 Q1018 EKSB 182220Z AUTO 00000KT 8000 NCD 15/13 Q1018 EKSB 182150Z AUTO 15001KT 9999 NCD 14/13 Q1019 EKSB 182120Z AUTO 13005KT 9999 FEW086/// 15/13 Q1019 EKSB 182050Z AUTO 14005KT 9999 NCD 14/13 Q1019 EKSB 182020Z AUTO 13005KT 9999 NCD 15/13 Q1019 EKSB 181950Z AUTO 14004KT 9999 NCD 15/14 Q1019 EKSB 181920Z AUTO 14006KT 9999 NCD 16/14 Q1019 EKSB 181850Z AUTO 14006KT 9999 NCD 17/14 Q1019 EKSB 181820Z AUTO 14005KT 9999 NCD 17/14 Q1020 EKSB 181750Z AUTO 14006KT 9999 BKN110/// 18/14 Q1020 EKSB 181720Z AUTO 14009KT 9999 BKN110/// 19/14 Q1020 EKSB 181650Z AUTO 14008KT 9999 SCT085/// SCT110/// 19/14 Q1020 EKSB 181620Z 14009KT CAVOK 20/14 Q1020 EKSB 181550Z 14009KT CAVOK 20/14 Q1020 EKSB 181520Z 14010KT CAVOK 20/14 Q1020 EKSB 181450Z 13010KT CAVOK 20/13 Q1021 EKSB 181420Z 13010KT CAVOK 20/13 Q1021

METAR Messwerte "SONDERBORG AIRPO" EKSB

Zurück zur Übersicht

Ortsname
Ländercode / m ü. NN
Zeit Temperatur Taupunkt Rel.
Luftfeuchte
Luftdruck:
Altimeter
NN
Station
Wind in Beaufort
(Knoten)
Sichtweite
(Meter)
Wolken
(Meter über Grund)
Wettererscheinung
SONDERBORG AIRPO
DK 23
Fr 20.05. 03:50131294 %1017
1017
1014
WNW 4 (11)
WSW - NW
>= 10000Bedeckt (210) 
SONDERBORG AIRPO
DK 23
Fr 20.05. 03:20141394 %1017
1017
1014
W 3 (9)
SW - WNW
5000Bedeckt (150) 
SONDERBORG AIRPO
DK 23
Fr 20.05. 02:50151494 %1016
1016
1013
W 3 (8)
SW - WNW
9000Bedeckt (240) 
SONDERBORG AIRPO
DK 23
Fr 20.05. 02:20151494 %1016
1016
1013
W 3 (10)
SW - WNW
>= 10000Bedeckt (210) 
SONDERBORG AIRPO
DK 23
Fr 20.05. 01:50161488 %1016
1016
1013
W 2 (4)
SW - WNW
5000Bedeckt (180) 
SONDERBORG AIRPO
DK 23
Fr 20.05. 01:20161488 %1016
1016
1013
W 2 (5)
SW - NW
7000Stark bewölkt (1400)
Stark bewölkt (210)
 
SONDERBORG AIRPO
DK 23
Fr 20.05. 00:50151494 %1016
1016
1013
WSW 2 (5)
SSW - WNW
9000Stark bewölkt (2700)
Wolkig (1400)
Leicht bewölkt (270)
 
SONDERBORG AIRPO
DK 23
Fr 20.05. 00:20161488 %1016
1016
1013
WSW 2 (4)
SSW - W
9000Wolkig (2700)
Leicht bewölkt (1200)
 
SONDERBORG AIRPO
DK 23
Do 19.05. 23:50161488 %1016
1016
1013
W 2 (5)
SW - WNW
>= 10000Stark bewölkt (1800)
Wolkig (1200)
 
SONDERBORG AIRPO
DK 23
Do 19.05. 23:20171588 %1016
1016
1013
W 2 (6)
WSW - NW
>= 10000Stark bewölkt (3000)
Stark bewölkt (1700)
Leicht bewölkt (760)
 
SONDERBORG AIRPO
DK 23
Do 19.05. 22:50171482 %1016
1016
1013
W 2 (5)>= 10000Stark bewölkt (850)
Stark bewölkt (520)
 
SONDERBORG AIRPO
DK 23
Do 19.05. 22:20171482 %1016
1016
1013
SW 2 (4)>= 10000Bedeckt (670) 
SONDERBORG AIRPO
DK 23
Do 19.05. 21:50161488 %1015
1015
1012
S 1 (2)>= 10000Stark bewölkt (640) 
SONDERBORG AIRPO
DK 23
Do 19.05. 21:20161488 %1015
1015
1012
S 2 (3)>= 10000  
SONDERBORG AIRPO
DK 23
Do 19.05. 20:50171482 %1014
1014
1011
OSO 1 (1)>= 10000Wolkig (3000) 
SONDERBORG AIRPO
DK 23
Do 19.05. 20:20171482 %1014
1014
1011
NW 1 (1)>= 10000Wolkig (3000) 
SONDERBORG AIRPO
DK 23
Do 19.05. 19:50171482 %1014
1014
1011
NW 2 (4)>= 10000Stark bewölkt (3000)Regen (schwach)
SONDERBORG AIRPO
DK 23
Do 19.05. 19:20171482 %1015
1015
1012
NW 2 (5)>= 10000Stark bewölkt (5200)
Stark bewölkt (4000)
Stark bewölkt (3400)
Wolkig (2700)
 
SONDERBORG AIRPO
DK 23
Do 19.05. 18:50181477 %1015
1015
1012
NW 2 (4)>= 10000Stark bewölkt (2700)
Wolkig (910)
Leicht bewölkt (370)
 
SONDERBORG AIRPO
DK 23
Do 19.05. 18:20191473 %1016
1016
1013
WNW 2 (5)>= 10000Stark bewölkt (2700)
Leicht bewölkt (610)
 
SONDERBORG AIRPO
DK 23
Do 19.05. 17:50191473 %1016
1016
1013
W 2 (3)>= 10000Nicht signifikant 
SONDERBORG AIRPO
DK 23
Do 19.05. 17:20201573 %1016
1016
1013
NW 1 (2)>= 10000Nicht signifikant 
SONDERBORG AIRPO
DK 23
Do 19.05. 16:50201573 %1016
1016
1013
NW 2 (3)>= 10000Nicht signifikant 
SONDERBORG AIRPO
DK 23
Do 19.05. 16:20201468 %1016
1016
1013
NNW 1 (2)>= 10000Nicht signifikant 
SONDERBORG AIRPO
DK 23
Do 19.05. 15:50191473 %1016
1016
1013
NO 1 (2)>= 10000Nicht signifikant 
SONDERBORG AIRPO
DK 23
Do 19.05. 15:20181477 %1016
1016
1013
ONO 2 (4)
NNO - O
>= 10000Nicht signifikant 
SONDERBORG AIRPO
DK 23
Do 19.05. 14:50181477 %1016
1016
1013
NNO 2 (6)>= 10000Nicht signifikant 
SONDERBORG AIRPO
DK 23
Do 19.05. 14:20201468 %1016
1016
1013
N 2 (6)
NNW - NO
>= 10000Nicht signifikant 
SONDERBORG AIRPO
DK 23
Do 19.05. 13:50201573 %1017
1017
1014
NNW 3 (7)
NW - N
>= 10000Stark bewölkt (5500)
Leicht bewölkt (760)
 
SONDERBORG AIRPO
DK 23
Do 19.05. 13:23201573 %1017
1017
1014
NW 3 (8)>= 10000Stark bewölkt (5500)
Leicht bewölkt (760)
 
SONDERBORG AIRPO
DK 23
Do 19.05. 12:50201678 %1017
1017
1014
NW 3 (7)>= 10000Nicht signifikant 
SONDERBORG AIRPO
DK 23
Do 19.05. 12:20201678 %1017
1017
1014
NNW 2 (6)
WNW - N
>= 10000Nicht signifikant 
SONDERBORG AIRPO
DK 23
Do 19.05. 11:50201678 %1018
1018
1015
N 2 (6)
NW - NNO
8000Nicht signifikant 
SONDERBORG AIRPO
DK 23
Do 19.05. 11:20191683 %1018
1018
1015
NW 3 (7)8000Stark bewölkt (2300)
Wolkig (1100)
 
SONDERBORG AIRPO
DK 23
Do 19.05. 11:02191683 %1018
1018
1015
N 1 (1)8000Stark bewölkt (2300)
Leicht bewölkt Cb (610)
 
SONDERBORG AIRPO
DK 23
Do 19.05. 10:50191683 %1017
1017
1014
O 1 (2)6000Stark bewölkt (2100)
Leicht bewölkt Cb (910)
 
SONDERBORG AIRPO
DK 23
Do 19.05. 10:20181583 %1017
1017
1014
NO 1 (2)6000Stark bewölkt (2100)
Leicht bewölkt Cb (910)
 
SONDERBORG AIRPO
DK 23
Do 19.05. 09:50181583 %1018
1018
1015
Uml 1 (1)4000Stark bewölkt (2100)
Leicht bewölkt Cb (760)
Nebeldunst
SONDERBORG AIRPO
DK 23
Do 19.05. 09:21181688 %1017
1017
1014
OSO 2 (4)3000Nicht signifikantNebeldunst
SONDERBORG AIRPO
DK 23
Do 19.05. 08:50161594 %1018
1018
1015
OSO 2 (3)4000Nicht signifikantNebeldunst
SONDERBORG AIRPO
DK 23
Do 19.05. 08:21171588 %1018
1018
1015
SO 2 (3)4000Nicht signifikantNebeldunst
SONDERBORG AIRPO
DK 23
Do 19.05. 07:50161594 %1018
1018
1015
OSO 2 (3)3000Nicht signifikantNebeldunst
SONDERBORG AIRPO
DK 23
Do 19.05. 07:201515100 %1018
1018
1015
Windstill3000Nicht signifikantNebeldunst
SONDERBORG AIRPO
DK 23
Do 19.05. 06:50141394 %1018
1018
1015
OSO 1 (1)2500Nicht signifikantNebeldunst
SONDERBORG AIRPO
DK 23
Do 19.05. 06:201313100 %1018
1018
1015
WNW 1 (1)3000Nicht signifikantNebel-Bänke
SONDERBORG AIRPO
DK 23
Do 19.05. 05:50131294 %1018
1018
1015
Windstill1000 Nebel-Bänke
SONDERBORG AIRPO
DK 23
Do 19.05. 05:20131294 %1018
1018
1015
OSO 1 (1)250 Nebel
SONDERBORG AIRPO
DK 23
Do 19.05. 04:50121194 %1018
1018
1015
Uml 1 (1)300 Nebel-Bänke
SONDERBORG AIRPO
DK 23
Do 19.05. 04:20131294 %1018
1018
1015
WSW 2 (3)2000 Nebeldunst
SONDERBORG AIRPO
DK 23
Do 19.05. 03:50141394 %1018
1018
1015
Uml 1 (2)4000 Nebel-Bänke
SONDERBORG AIRPO
DK 23
Do 19.05. 03:20141394 %1018
1018
1015
W 1 (1)3100 Nebeldunst
SONDERBORG AIRPO
DK 23
Do 19.05. 02:501414100 %1018
1018
1015
W 1 (1)3500 Nebel-Bänke
SONDERBORG AIRPO
DK 23
Do 19.05. 02:20141394 %1018
1018
1015
Windstill5000Wolkig (2200) 
SONDERBORG AIRPO
DK 23
Do 19.05. 01:50141394 %1018
1018
1015
SO 1 (1)>= 10000 Nebel-Bänke
SONDERBORG AIRPO
DK 23
Do 19.05. 01:20141394 %1018
1018
1015
SSO 1 (2)>= 10000  
SONDERBORG AIRPO
DK 23
Do 19.05. 00:50141394 %1018
1018
1015
Windstill8000  
SONDERBORG AIRPO
DK 23
Do 19.05. 00:20151388 %1018
1018
1015
Windstill8000  
SONDERBORG AIRPO
DK 23
Mi 18.05. 23:50141394 %1019
1019
1016
SSO 1 (1)>= 10000  
SONDERBORG AIRPO
DK 23
Mi 18.05. 23:20151388 %1019
1019
1016
SO 2 (5)>= 10000Leicht bewölkt (2600) 
SONDERBORG AIRPO
DK 23
Mi 18.05. 22:50141394 %1019
1019
1016
SO 2 (5)>= 10000  
SONDERBORG AIRPO
DK 23
Mi 18.05. 22:20151388 %1019
1019
1016
SO 2 (5)>= 10000  
SONDERBORG AIRPO
DK 23
Mi 18.05. 21:50151494 %1019
1019
1016
SO 2 (4)>= 10000  
SONDERBORG AIRPO
DK 23
Mi 18.05. 21:20161488 %1019
1019
1016
SO 2 (6)>= 10000  
SONDERBORG AIRPO
DK 23
Mi 18.05. 20:50171482 %1019
1019
1016
SO 2 (6)>= 10000  
SONDERBORG AIRPO
DK 23
Mi 18.05. 20:20171482 %1020
1020
1017
SO 2 (5)>= 10000  
SONDERBORG AIRPO
DK 23
Mi 18.05. 19:50181477 %1020
1020
1017
SO 2 (6)>= 10000Stark bewölkt (3400) 
SONDERBORG AIRPO
DK 23
Mi 18.05. 19:20191473 %1020
1020
1017
SO 3 (9)>= 10000Stark bewölkt (3400) 
SONDERBORG AIRPO
DK 23
Mi 18.05. 18:50191473 %1020
1020
1017
SO 3 (8)>= 10000Wolkig (3400)
Wolkig (2600)
 
SONDERBORG AIRPO
DK 23
Mi 18.05. 18:20201468 %1020
1020
1017
SO 3 (9)>= 10000Nicht signifikant 
SONDERBORG AIRPO
DK 23
Mi 18.05. 17:50201468 %1020
1020
1017
SO 3 (9)>= 10000Nicht signifikant 
SONDERBORG AIRPO
DK 23
Mi 18.05. 17:20201468 %1020
1020
1017
SO 3 (10)>= 10000Nicht signifikant 
SONDERBORG AIRPO
DK 23
Mi 18.05. 16:50201364 %1021
1021
1018
SO 3 (10)>= 10000Nicht signifikant 
SONDERBORG AIRPO
DK 23
Mi 18.05. 16:20201364 %1021
1021
1018
SO 3 (10)>= 10000Nicht signifikant 

Altimeter: Einstellung am Altimeter (Höhenmesser), die Höhe 0 muss auf diesen Luftdruckwert zeigen, damit das Gerät die Stationshöhe richtig anzeigt.

NN: Luftdruck reduziert auf "Normal Null", auf Meereshöhe, dieser von der Temperatur abhängige Wert wird bisweilen unkorrekt einfach als "Luftdruck" bezeichnet. Eigentlich nur eine fiktive Größe, die es erlaubt, Stationen auf unterschiedlichen Höhen miteinander zu vergleichen.

Station: Realer Luftdruck an der Station.